createdAt,value
2023-04-13T09:28:50.122Z,10.16
2023-04-13T09:29:50.017Z,10.18
2023-04-13T09:30:50.258Z,10.25
2023-04-13T09:31:50.256Z,10.34
2023-04-13T09:33:49.701Z,10.41
2023-04-13T09:34:49.613Z,10.59
2023-04-13T09:35:49.535Z,10.31
2023-04-13T09:36:54.559Z,10.39
2023-04-13T09:37:49.372Z,10.46
2023-04-13T09:38:49.299Z,10.56
2023-04-13T09:39:49.212Z,10.71
2023-04-13T09:40:49.132Z,10.31
2023-04-13T09:41:49.067Z,10.34
2023-04-13T09:42:49.184Z,10.36
2023-04-13T09:43:49.095Z,10.44
2023-04-13T09:44:48.833Z,10.55
2023-04-13T09:45:48.733Z,10.44
2023-04-13T09:46:48.754Z,10.36
2023-04-13T09:47:48.661Z,10.33
2023-04-13T09:48:48.494Z,10.33
2023-04-13T09:49:48.412Z,10.43
2023-04-13T09:50:48.342Z,10.23
2023-04-13T09:51:48.251Z,10.10
2023-04-13T09:52:48.179Z,10.15
2023-04-13T09:53:48.096Z,9.98
2023-04-13T09:54:48.868Z,10.18
2023-04-13T09:55:47.933Z,10.25
2023-04-13T09:56:47.879Z,10.15
2023-04-13T09:57:47.775Z,10.34
2023-04-13T09:58:47.730Z,10.23
2023-04-13T09:59:47.611Z,10.13
2023-04-13T10:00:47.551Z,10.18
2023-04-13T10:01:47.744Z,10.33
2023-04-13T10:02:47.683Z,10.21
2023-04-13T10:03:47.312Z,10.06
2023-04-13T10:04:47.238Z,10.06
2023-04-13T10:05:58.649Z,10.00
2023-04-13T10:06:47.070Z,9.93
2023-04-13T10:07:46.965Z,9.92
2023-04-13T10:08:46.884Z,9.93
2023-04-13T10:09:46.808Z,10.00
2023-04-13T10:10:48.264Z,10.15
2023-04-13T10:11:46.681Z,10.07
2023-04-13T10:12:46.560Z,9.96
2023-04-13T10:13:46.532Z,9.93
2023-04-13T10:14:46.402Z,9.97
2023-04-13T10:15:46.362Z,10.06
2023-04-13T10:16:46.406Z,10.11
2023-04-13T10:17:46.224Z,10.00
2023-04-13T10:18:46.119Z,10.08
2023-04-13T10:19:46.022Z,9.88
2023-04-13T10:20:45.914Z,9.79
2023-04-13T10:21:45.858Z,9.90
2023-04-13T10:22:45.795Z,10.03
2023-04-13T10:23:45.924Z,10.16
2023-04-13T10:24:45.597Z,10.40
2023-04-13T10:25:45.522Z,10.47
2023-04-13T10:26:45.426Z,10.65
2023-04-13T10:27:45.367Z,10.77
2023-04-13T10:28:45.295Z,10.84
2023-04-13T10:29:45.263Z,10.91
2023-04-13T10:30:45.106Z,10.91
2023-04-13T10:31:45.225Z,10.87
2023-04-13T10:32:44.975Z,10.93
2023-04-13T10:33:45.358Z,10.99
2023-04-13T10:34:44.786Z,11.18
2023-04-13T10:35:44.704Z,10.99
2023-04-13T10:36:44.640Z,10.99
2023-04-13T10:37:44.592Z,11.17
2023-04-13T10:38:44.462Z,11.21
2023-04-13T10:39:44.385Z,11.31
2023-04-13T10:40:44.303Z,11.41
2023-04-13T10:41:44.425Z,11.57
2023-04-13T10:43:44.069Z,11.72
2023-04-13T10:44:43.988Z,11.87
2023-04-13T10:45:43.914Z,11.75
2023-04-13T10:46:43.839Z,11.54
2023-04-13T11:10:57.933Z,11.93
2023-04-13T11:11:41.869Z,12.24
2023-04-13T11:14:41.644Z,13.14
2023-04-13T11:21:45.410Z,13.47
2023-04-13T11:22:47.486Z,13.19
2023-04-13T11:23:45.157Z,12.41
2023-04-13T11:24:45.093Z,12.21
2023-04-13T11:25:45.018Z,12.12
2023-04-13T11:26:44.946Z,12.05
2023-04-13T11:27:44.855Z,12.00
2023-04-13T11:28:44.773Z,12.08
2023-04-13T11:29:44.699Z,12.13
2023-04-13T11:30:44.621Z,12.19
2023-04-13T11:31:44.563Z,12.53
2023-04-13T11:32:44.517Z,12.33
2023-04-13T11:33:44.458Z,12.37
2023-04-13T11:34:44.317Z,12.33
2023-04-13T11:35:49.944Z,12.52
2023-04-13T11:36:44.161Z,12.31
2023-04-13T11:37:44.091Z,12.45
2023-04-13T11:38:44.019Z,12.49
2023-04-13T11:39:43.941Z,12.49
2023-04-13T11:40:43.862Z,12.56
2023-04-13T11:41:43.821Z,11.79
2023-04-13T11:42:43.723Z,11.69
2023-04-13T11:43:43.628Z,11.59
2023-04-13T11:44:43.555Z,11.69
2023-04-13T11:45:43.546Z,12.12
2023-04-13T11:46:43.490Z,12.30
2023-04-13T11:47:43.368Z,12.56
2023-04-13T11:48:43.750Z,13.11
2023-04-13T11:49:43.171Z,14.11
2023-04-13T11:50:43.093Z,14.57
2023-04-13T11:51:43.018Z,15.12
2023-04-13T11:52:42.938Z,15.70
2023-04-13T11:53:42.863Z,15.70
2023-04-13T11:54:42.794Z,15.02
2023-04-13T11:55:52.917Z,14.52
2023-04-13T11:56:42.642Z,14.17
2023-04-13T12:24:12.573Z,15.85
2023-04-13T12:25:13.130Z,15.97
2023-04-13T12:28:12.231Z,15.49
2023-04-13T12:29:12.166Z,16.08
2023-04-13T12:32:37.791Z,16.35
2023-04-13T12:33:37.682Z,16.73
2023-04-13T12:34:37.613Z,16.59
2023-04-13T12:35:37.541Z,16.80
2023-04-13T12:36:37.788Z,16.47
2023-04-13T12:37:37.406Z,16.93
2023-04-13T12:38:37.340Z,17.71
2023-04-13T13:23:19.107Z,14.09
2023-04-13T13:24:19.078Z,14.10
2023-04-13T13:25:18.952Z,15.09
2023-04-13T13:26:23.820Z,15.96
2023-04-13T13:27:58.701Z,15.70
2023-04-13T13:28:18.747Z,15.67
2023-04-13T13:29:18.665Z,15.89
2023-04-13T13:30:18.616Z,16.08
2023-04-13T13:31:18.579Z,15.96
2023-04-13T13:32:19.974Z,15.97
2023-04-13T13:33:18.419Z,16.04
2023-04-13T13:34:18.308Z,15.96
2023-04-13T13:35:18.235Z,16.27
2023-04-13T13:36:18.388Z,16.08
2023-04-13T13:37:18.095Z,15.99
2023-04-13T13:38:18.030Z,15.52
2023-04-13T13:39:17.993Z,15.08
2023-04-13T13:40:17.899Z,14.61
2023-04-13T13:41:17.822Z,13.83
2023-04-13T13:42:17.741Z,13.77
2023-04-13T13:43:17.877Z,13.86
2023-04-13T13:44:17.665Z,13.87
2023-04-13T13:45:17.526Z,13.65
2023-04-13T13:46:17.518Z,13.68
2023-04-13T13:47:17.421Z,13.71
2023-04-13T13:48:17.307Z,13.83
2023-04-13T13:49:17.239Z,13.76
2023-04-13T13:50:17.156Z,13.62
2023-04-13T13:51:17.104Z,13.71
2023-04-13T13:52:17.013Z,13.55
2023-04-13T13:53:16.945Z,13.58
2023-04-13T13:54:17.124Z,13.63
2023-04-13T13:56:09.311Z,13.41
2023-04-13T13:57:09.208Z,13.25
2023-04-13T14:00:08.976Z,13.44
2023-04-13T14:01:08.923Z,13.14
2023-04-13T14:02:08.908Z,13.11
2023-04-13T14:04:01.541Z,13.63
2023-04-13T14:05:01.176Z,14.46
2023-04-13T14:06:01.137Z,15.28
2023-04-13T14:07:01.009Z,16.22
2023-04-13T14:08:00.944Z,16.85
2023-04-13T14:09:01.049Z,16.62
2023-04-13T14:10:00.787Z,16.57
2023-04-13T14:11:00.715Z,16.15
2023-04-13T14:12:00.656Z,15.73
2023-04-13T14:13:00.558Z,15.70
2023-04-13T14:14:07.858Z,16.08
2023-04-13T14:15:00.413Z,16.60
2023-04-13T14:16:00.380Z,16.12
2023-04-13T14:17:00.268Z,15.24
2023-04-13T14:19:00.275Z,14.60
2023-04-13T14:20:00.046Z,14.85
2023-04-13T14:20:59.975Z,15.08
2023-04-13T14:21:59.906Z,14.93
2023-04-13T14:22:59.828Z,14.93
2023-04-13T14:23:59.867Z,14.87
2023-04-13T14:24:59.681Z,14.74
2023-04-13T14:25:59.610Z,14.57
2023-04-13T14:26:59.535Z,14.16
2023-04-13T14:27:59.481Z,13.89
2023-04-13T14:28:59.656Z,13.61
2023-04-13T14:29:59.310Z,13.56
2023-04-13T14:30:59.270Z,13.44
2023-04-13T14:31:59.164Z,13.41
2023-04-13T14:32:59.121Z,13.07
2023-04-13T14:33:59.014Z,12.74
2023-04-13T14:34:58.939Z,12.41
2023-04-13T14:35:58.861Z,12.18
2023-04-13T14:36:58.787Z,12.09
2023-04-13T14:37:58.719Z,12.05
2023-04-13T14:38:58.999Z,11.94
2023-04-13T14:39:58.555Z,11.86
2023-04-13T14:40:58.484Z,11.76
2023-04-13T14:41:58.403Z,11.79
2023-04-13T14:42:58.335Z,11.81
2023-04-13T14:43:58.265Z,11.94
2023-04-13T14:44:58.266Z,11.84
2023-04-13T14:45:58.113Z,11.84
2023-04-13T14:46:58.192Z,11.81
2023-04-13T14:47:58.038Z,11.93
2023-04-13T14:48:57.999Z,11.93
2023-04-13T14:49:57.784Z,11.87
2023-04-13T14:50:57.701Z,11.95
2023-04-13T14:51:57.652Z,11.98
2023-04-13T14:52:57.545Z,12.05
2023-04-13T14:53:58.903Z,12.06
2023-04-13T14:54:57.387Z,11.97
2023-04-13T14:57:04.833Z,12.08
2023-04-13T14:58:04.727Z,12.05
2023-04-13T14:59:04.664Z,12.06
2023-04-13T15:21:24.918Z,11.67
2023-04-13T15:22:24.832Z,11.76
2023-04-13T15:23:24.737Z,11.69
2023-04-13T15:24:24.663Z,11.72
2023-04-13T15:25:24.579Z,11.69
2023-04-13T15:26:24.554Z,11.51
2023-04-13T15:27:24.496Z,11.28
2023-04-13T15:28:24.339Z,11.26
2023-04-13T15:29:25.790Z,11.16
2023-04-13T15:30:24.679Z,11.36
2023-04-13T15:31:24.220Z,11.35
2023-04-13T15:32:24.077Z,11.67
2023-04-13T15:33:23.975Z,11.83
2023-04-13T15:34:23.862Z,12.11
2023-04-13T15:35:25.680Z,12.48
2023-04-13T15:36:23.725Z,12.74
2023-04-13T15:37:23.656Z,12.86
2023-04-13T15:38:23.551Z,13.09
2023-04-13T15:39:23.473Z,13.44
2023-04-13T15:40:23.422Z,13.59
2023-04-13T15:41:24.950Z,13.70
2023-04-13T15:42:23.256Z,13.63
2023-04-13T15:43:23.172Z,13.38
2023-04-13T15:45:10.577Z,14.02
2023-04-13T15:46:10.550Z,14.11
2023-04-13T15:47:10.422Z,14.11
2023-04-13T15:48:13.368Z,14.28
2023-04-13T15:49:10.274Z,14.56
2023-04-13T15:50:10.191Z,14.88
2023-04-13T15:51:10.111Z,15.10
2023-04-13T15:52:10.046Z,15.08
2023-04-13T15:53:09.981Z,15.03
2023-04-13T15:54:09.883Z,15.15
2023-04-13T15:55:09.814Z,14.97
2023-04-13T15:56:09.737Z,14.95
2023-04-13T15:57:09.660Z,14.84
2023-04-13T15:58:09.588Z,14.59
2023-04-13T15:59:09.510Z,14.41
2023-04-13T16:00:09.506Z,13.94
2023-04-13T16:01:09.457Z,13.94
2023-04-13T16:02:09.382Z,14.31
2023-04-13T16:03:09.443Z,14.42
2023-04-13T16:04:09.287Z,14.54
2023-04-13T16:05:09.068Z,14.57
2023-04-13T16:06:08.995Z,14.60
2023-04-13T16:07:14.272Z,14.79
2023-04-13T16:08:08.843Z,14.60
2023-04-13T16:09:08.792Z,14.93
2023-04-13T16:10:08.692Z,15.18
2023-04-13T16:11:08.619Z,15.20
2023-04-13T16:12:08.545Z,15.16
2023-04-13T16:13:08.483Z,15.34
2023-04-13T16:14:08.403Z,15.31
2023-04-13T16:15:08.324Z,15.20
2023-04-13T16:16:08.307Z,15.01
2023-04-13T16:17:08.181Z,14.57
2023-04-13T16:18:08.185Z,14.54
2023-04-13T16:19:08.031Z,14.57
2023-04-13T16:20:07.957Z,14.50
2023-04-13T16:21:07.902Z,14.36
2023-04-13T16:22:07.817Z,14.21
2023-04-13T16:23:07.738Z,13.94
2023-04-13T16:24:07.663Z,13.63
2023-04-13T16:25:07.607Z,13.38
2023-04-13T16:26:07.583Z,13.07
2023-04-13T16:27:07.437Z,13.11
2023-04-13T16:28:07.362Z,13.04
2023-04-13T16:29:07.290Z,13.07
2023-04-13T16:30:07.237Z,13.02
2023-04-13T16:31:07.180Z,12.89
2023-04-13T16:32:07.064Z,12.77
2023-04-13T16:33:07.025Z,12.92
2023-04-13T16:34:18.033Z,13.00
2023-04-13T16:35:06.837Z,12.84
2023-04-13T16:36:07.216Z,12.77
2023-04-13T16:37:06.898Z,12.79
2023-04-13T16:38:06.604Z,12.61
2023-04-13T16:39:06.542Z,12.36
2023-04-13T16:40:06.564Z,12.21
2023-04-13T16:41:06.398Z,12.05
2023-04-13T16:42:09.122Z,11.90
2023-04-13T16:43:06.222Z,11.75
2023-04-13T16:44:06.152Z,11.71
2023-04-13T16:45:06.110Z,11.75
2023-04-13T16:46:06.006Z,11.68
2023-04-13T16:47:05.921Z,11.67
2023-04-13T17:19:45.107Z,10.88
2023-04-13T17:20:44.995Z,11.00
2023-04-13T17:21:44.918Z,10.98
2023-04-13T17:22:44.844Z,10.85
2023-04-13T17:23:44.754Z,10.88
2023-04-13T17:24:44.725Z,10.99
2023-04-13T17:25:44.594Z,10.81
2023-04-13T17:26:44.513Z,10.92
2023-04-13T17:27:44.474Z,11.00
2023-04-13T17:28:44.510Z,11.10
2023-04-13T17:29:44.310Z,11.08
2023-04-13T17:30:44.433Z,10.99
2023-04-13T17:32:56.656Z,10.92
2023-04-13T17:33:56.528Z,10.95
2023-04-13T17:34:56.508Z,10.95
2023-04-13T17:35:56.376Z,10.95
2023-04-13T17:36:56.288Z,10.81
2023-04-13T17:37:56.206Z,10.87
2023-04-13T17:38:56.425Z,10.80
2023-04-13T17:39:56.074Z,10.84
2023-04-13T17:40:55.968Z,10.83
2023-04-13T17:41:56.298Z,10.85
2023-04-13T17:42:55.811Z,10.81
2023-04-13T17:43:55.723Z,10.84
2023-04-13T17:44:55.643Z,10.85
2023-04-13T17:45:55.587Z,10.84
2023-04-13T17:46:55.928Z,10.78
2023-04-13T17:47:55.578Z,10.87
2023-04-13T17:49:55.529Z,10.69
2023-04-13T17:51:56.058Z,10.66
2023-04-13T17:52:55.641Z,10.65
2023-04-13T17:53:55.930Z,10.63
2023-04-13T17:54:54.835Z,10.69
2023-04-13T17:55:54.805Z,10.66
2023-04-13T17:56:54.824Z,10.60
2023-04-13T17:57:54.596Z,10.56
2023-04-13T17:58:54.520Z,10.59
2023-04-13T18:08:36.353Z,10.25
2023-04-13T18:09:36.152Z,10.21
2023-04-13T18:10:36.087Z,10.01
2023-04-13T18:11:35.990Z,10.03
2023-04-13T18:12:36.113Z,9.90
2023-04-13T18:13:35.834Z,9.78
2023-04-13T18:14:35.906Z,9.79
2023-04-13T18:15:35.678Z,9.71
2023-04-13T18:16:35.635Z,9.63
2023-04-13T18:17:35.538Z,9.60
2023-04-13T18:18:35.422Z,9.53
2023-04-13T18:19:35.353Z,9.43
2023-04-13T18:20:35.261Z,9.34
2023-04-13T18:21:35.428Z,9.25
2023-04-13T18:22:35.103Z,9.29
2023-04-13T18:23:35.016Z,9.22
2023-04-13T18:24:34.978Z,9.17
2023-04-13T18:25:34.860Z,9.16
2023-04-13T18:26:34.774Z,9.06
2023-04-13T18:27:34.690Z,8.93
2023-04-13T18:28:34.848Z,8.90
2023-04-13T18:36:26.374Z,8.57
2023-04-13T18:37:26.495Z,8.61
2023-04-13T18:38:26.209Z,8.66
2023-04-13T18:39:26.139Z,8.65
2023-04-13T18:40:26.059Z,8.66
2023-04-13T18:41:25.957Z,8.66
2023-04-13T18:42:25.894Z,8.58
2023-04-13T18:43:25.793Z,8.55
2023-04-13T18:44:25.715Z,8.60
2023-04-13T18:45:25.783Z,8.48
2023-04-13T18:46:25.589Z,8.44
2023-04-13T18:47:25.485Z,8.50
2023-04-13T18:48:25.388Z,8.39
2023-04-13T18:49:25.301Z,8.42
2023-04-13T18:50:25.224Z,8.29
2023-04-13T18:51:25.284Z,8.32
2023-04-13T18:52:25.056Z,8.29
2023-04-13T18:53:24.970Z,8.25
2023-04-13T18:54:24.893Z,8.21
2023-04-13T18:55:24.805Z,8.22
2023-04-13T18:56:24.744Z,8.25
2023-04-13T18:57:24.646Z,8.19
2023-04-13T18:58:24.597Z,8.14
2023-04-13T18:59:24.497Z,8.15
2023-04-13T19:00:24.391Z,8.24
2023-04-13T19:01:24.386Z,8.18
2023-04-13T19:02:24.357Z,8.15
2023-04-13T19:03:24.268Z,8.01
2023-04-13T19:04:24.147Z,8.00
2023-04-13T19:05:23.988Z,7.97
2023-04-13T19:06:24.147Z,7.99
2023-04-13T19:07:23.818Z,7.93
2023-04-13T19:08:23.730Z,7.86
2023-04-13T19:09:23.652Z,7.88
2023-04-13T19:10:23.577Z,7.81
2023-04-13T19:11:23.481Z,7.70
2023-04-13T19:12:23.421Z,7.57
2023-04-13T19:14:11.248Z,7.57
2023-04-13T19:15:11.170Z,7.55
2023-04-13T19:16:11.103Z,7.55
2023-04-13T19:17:10.998Z,7.55
2023-04-13T19:18:13.536Z,7.55
2023-04-13T19:19:10.832Z,7.48
2023-04-13T19:20:10.747Z,7.53
2023-04-13T19:33:18.754Z,7.16
2023-04-13T19:34:18.653Z,7.08
2023-04-13T19:35:18.578Z,7.03
2023-04-13T19:36:18.498Z,6.94
2023-04-13T19:37:18.416Z,7.02
2023-04-13T19:38:18.618Z,6.86
2023-04-13T19:39:18.442Z,6.91
2023-04-13T19:40:18.352Z,6.87
2023-04-13T19:41:18.265Z,6.96
2023-04-13T19:42:17.985Z,6.96
2023-04-13T19:43:17.899Z,6.94
2023-04-13T19:44:17.920Z,6.90
2023-04-13T19:45:17.739Z,6.76
2023-04-13T19:46:17.676Z,6.76
2023-04-13T19:47:20.237Z,6.76
2023-04-13T19:48:59.989Z,6.63
2023-04-13T19:49:59.872Z,6.63
2023-04-13T19:50:59.798Z,6.59
2023-04-13T19:51:59.712Z,6.66
2023-04-13T19:52:59.663Z,6.62
2023-04-13T19:53:59.862Z,6.70
2023-04-13T19:54:59.468Z,6.55
2023-04-13T19:55:59.371Z,6.66
2023-04-13T19:56:59.297Z,6.70
2023-04-13T19:57:59.204Z,6.65
2023-04-13T19:58:59.421Z,6.72
2023-04-13T19:59:59.035Z,6.70
2023-04-13T20:00:59.003Z,6.73
2023-04-13T20:01:59.066Z,6.81
2023-04-13T20:02:58.937Z,6.70
2023-04-13T20:03:59.021Z,6.63
2023-04-13T20:04:58.639Z,6.65
2023-04-13T20:05:58.530Z,6.60
2023-04-13T20:06:58.654Z,6.69
2023-04-13T20:07:58.367Z,6.66
2023-04-13T20:08:58.284Z,6.68
2023-04-13T20:09:58.200Z,6.72
2023-04-13T20:10:59.860Z,6.73
2023-04-13T20:11:58.029Z,6.73
2023-04-13T20:12:57.943Z,6.72
2023-04-13T20:13:58.028Z,6.78
2023-04-13T20:14:57.775Z,6.69
2023-04-13T20:15:57.717Z,6.81
2023-04-13T20:16:57.607Z,6.69
2023-04-13T20:17:57.636Z,6.73
2023-04-13T20:18:57.439Z,6.73
2023-04-13T20:19:57.361Z,6.75
2023-04-13T20:20:57.291Z,6.69
2023-04-13T20:21:57.193Z,6.70
2023-04-13T20:22:57.101Z,6.76
2023-04-13T20:23:57.108Z,6.73
2023-04-13T20:24:56.940Z,6.80
2023-04-13T20:25:56.846Z,6.73
2023-04-13T20:26:56.766Z,6.73
2023-04-13T20:27:56.695Z,6.72
2023-04-13T20:28:56.621Z,6.76
2023-04-13T20:29:56.511Z,6.73
2023-04-13T20:30:56.453Z,6.70
2023-04-13T20:31:56.402Z,6.70
2023-04-13T20:32:56.342Z,6.70
2023-04-13T20:33:56.182Z,6.63
2023-04-13T20:34:56.092Z,6.69
2023-04-13T20:35:56.263Z,6.68
2023-04-13T20:36:55.946Z,6.69
2023-04-13T20:37:55.839Z,6.65
2023-04-13T20:38:55.802Z,6.72
2023-04-13T20:39:55.682Z,6.68
2023-04-13T20:40:55.584Z,6.69
2023-04-13T20:41:55.607Z,6.72
2023-04-13T20:42:55.437Z,6.73
2023-04-13T20:43:55.331Z,6.76
2023-04-13T20:44:55.260Z,6.72
2023-04-13T20:45:55.166Z,6.73
2023-04-13T20:46:55.421Z,6.75
2023-04-13T20:47:55.036Z,6.68
2023-04-13T20:48:54.953Z,6.69
2023-04-13T20:49:54.835Z,6.72
2023-04-13T20:50:54.749Z,6.69
2023-04-13T20:51:54.668Z,6.75
2023-04-13T20:52:54.597Z,6.80
2023-04-13T20:53:54.504Z,6.87
2023-04-13T20:54:54.416Z,6.81
2023-04-13T20:55:54.330Z,6.87
2023-04-13T20:56:54.261Z,6.93
2023-04-13T20:57:54.163Z,6.91
2023-04-13T20:58:54.081Z,6.93
2023-04-13T20:59:54.390Z,6.98
2023-04-13T21:00:53.938Z,6.99
2023-04-13T21:01:53.861Z,7.05
2023-04-13T21:02:53.843Z,7.13
2023-04-13T21:03:53.775Z,7.05
2023-04-13T21:04:53.728Z,7.06
2023-04-13T21:05:53.495Z,7.05
2023-04-13T21:06:53.410Z,7.12
2023-04-13T21:07:54.765Z,7.09
2023-04-13T21:08:53.260Z,7.11
2023-04-13T21:09:53.171Z,7.06
2023-04-13T21:10:53.083Z,7.09
2023-04-13T21:11:52.991Z,7.12
2023-04-13T21:12:52.906Z,7.09
2023-04-13T21:13:52.830Z,7.05
2023-04-13T21:14:52.741Z,7.19
2023-04-13T21:15:52.655Z,7.12
2023-04-13T21:16:52.707Z,7.16
2023-04-13T21:17:52.566Z,7.16
2023-04-13T21:18:52.416Z,7.12
2023-04-13T21:19:52.323Z,7.29
2023-04-13T21:20:52.236Z,7.35
2023-04-13T21:21:52.152Z,7.34
2023-04-13T21:22:52.124Z,7.37
2023-04-13T21:23:51.989Z,7.35
2023-04-13T21:24:51.927Z,7.45
2023-04-13T21:25:51.832Z,7.38
2023-04-13T21:26:51.733Z,7.37
2023-04-13T21:27:51.650Z,7.38
2023-04-13T21:28:51.565Z,7.48
2023-04-13T21:29:51.482Z,7.44
2023-04-13T21:30:51.398Z,7.34
2023-04-13T21:31:51.360Z,7.37
2023-04-13T21:32:51.311Z,7.20
2023-04-13T21:33:51.147Z,7.21
2023-04-13T21:34:51.066Z,7.19
2023-04-13T21:35:51.079Z,7.17
2023-04-13T21:36:52.267Z,7.17
2023-04-13T21:37:50.834Z,7.19
2023-04-13T21:38:50.740Z,7.20
2023-04-13T21:39:50.644Z,7.21
2023-04-13T21:40:50.584Z,7.13
2023-04-13T21:41:50.684Z,7.21
2023-04-13T21:42:50.396Z,7.09
2023-04-13T21:43:50.367Z,7.09
2023-04-13T21:44:50.228Z,7.09
2023-04-13T21:45:50.205Z,7.17
2023-04-13T21:46:50.411Z,7.19
2023-04-13T21:47:49.983Z,7.11
2023-04-13T21:48:49.897Z,7.11
2023-04-13T21:49:49.817Z,7.13
2023-04-13T21:50:49.725Z,7.17
2023-04-13T21:51:49.646Z,7.17
2023-04-13T21:52:49.561Z,7.12
2023-04-13T21:53:49.484Z,7.05
2023-04-13T21:54:51.514Z,7.03
2023-04-13T21:55:49.309Z,7.17
2023-04-13T21:56:49.288Z,6.99
2023-04-13T21:57:49.142Z,7.06
2023-04-13T21:58:49.062Z,7.06
2023-04-13T21:59:48.976Z,7.03
2023-04-13T22:00:48.942Z,7.08
2023-04-13T22:01:48.891Z,7.08
2023-04-13T22:03:31.467Z,7.01
2023-04-13T22:04:31.382Z,7.11
2023-04-13T22:05:31.049Z,7.02
2023-04-13T22:06:30.953Z,6.91
2023-04-13T22:07:41.904Z,6.94
2023-04-13T22:08:31.186Z,6.99
2023-04-13T22:09:30.706Z,7.05
2023-04-13T22:10:30.768Z,7.09
2023-04-13T22:11:30.536Z,7.08
2023-04-13T22:12:30.472Z,7.03
2023-04-13T22:13:30.373Z,7.01
2023-04-13T22:14:30.286Z,7.02
2023-04-13T22:15:30.229Z,7.01
2023-04-13T22:16:30.129Z,7.03
2023-04-13T22:17:30.093Z,6.93
2023-04-13T22:18:29.969Z,6.94
2023-04-13T22:19:29.867Z,6.94
2023-04-13T22:20:29.783Z,6.88
2023-04-13T22:21:29.734Z,6.94
2023-04-13T22:22:29.614Z,6.98
2023-04-13T22:23:29.558Z,6.87
2023-04-13T22:24:29.448Z,6.93
2023-04-13T22:25:29.372Z,6.91
2023-04-13T22:26:29.281Z,6.87
2023-04-13T22:27:29.196Z,6.90
2023-04-13T22:28:29.135Z,6.88
2023-04-13T22:29:29.029Z,6.91
2023-04-13T22:30:28.965Z,6.88
2023-04-13T22:31:28.945Z,6.84
2023-04-13T22:32:28.887Z,6.90
2023-04-13T22:33:28.698Z,6.72
2023-04-13T22:34:28.609Z,6.73
2023-04-13T22:35:28.524Z,6.76
2023-04-13T22:36:28.448Z,6.76
2023-04-13T22:37:28.365Z,6.73
2023-04-13T22:38:28.285Z,6.81
2023-04-13T22:39:28.188Z,6.78
2023-04-13T22:40:28.104Z,6.76
2023-04-13T22:41:28.028Z,6.70
2023-04-13T22:42:27.936Z,6.62
2023-04-13T22:43:28.107Z,6.66
2023-04-13T22:44:27.796Z,6.66
2023-04-13T22:45:27.685Z,6.55
2023-04-13T22:46:27.643Z,6.54
2023-04-13T22:47:27.581Z,6.52
2023-04-13T22:48:27.451Z,6.48
2023-04-13T22:49:27.349Z,6.44
2023-04-13T22:50:27.288Z,6.37
2023-04-13T22:51:27.184Z,6.30
2023-04-13T22:52:27.118Z,6.22
2023-04-13T22:53:27.061Z,6.27
2023-04-13T22:54:26.927Z,6.15
2023-04-13T22:55:26.840Z,6.10
2023-04-13T22:56:26.760Z,6.08
2023-04-13T22:57:26.672Z,6.00
2023-04-13T22:58:26.689Z,5.99
2023-04-13T22:59:26.514Z,6.04
2023-04-13T23:00:26.633Z,6.14
2023-04-13T23:01:26.666Z,6.07
2023-04-13T23:02:26.445Z,6.13
2023-04-13T23:03:26.291Z,6.18
2023-04-13T23:04:26.118Z,6.18
2023-04-13T23:05:25.999Z,6.29
2023-04-13T23:06:25.914Z,6.29
2023-04-13T23:07:25.829Z,6.32
2023-04-13T23:08:25.762Z,6.33
2023-04-13T23:09:25.666Z,6.37
2023-04-13T23:10:25.581Z,6.42
2023-04-13T23:11:25.491Z,6.48
2023-04-13T23:12:25.407Z,6.59
2023-04-13T23:13:25.325Z,6.59
2023-04-13T23:14:25.250Z,6.72
2023-04-13T23:15:25.156Z,6.73
2023-04-13T23:16:25.167Z,6.87
2023-04-13T23:17:25.291Z,6.87
2023-04-13T23:18:24.901Z,6.91
2023-04-13T23:19:24.817Z,6.98
2023-04-13T23:20:24.733Z,6.94
2023-04-13T23:21:24.651Z,7.02
2023-04-13T23:22:24.572Z,7.01
2023-04-13T23:23:24.483Z,6.96
2023-04-13T23:24:24.405Z,7.02
2023-04-13T23:25:24.321Z,7.02
2023-04-13T23:26:24.232Z,7.06
2023-04-13T23:27:24.147Z,7.02
2023-04-13T23:28:24.062Z,7.03
2023-04-13T23:29:24.021Z,7.08
2023-04-13T23:30:23.921Z,7.11
2023-04-13T23:31:23.830Z,7.17
2023-04-13T23:32:23.789Z,7.09
2023-04-13T23:33:23.670Z,7.16
2023-04-13T23:34:23.594Z,7.11
2023-04-13T23:35:23.492Z,7.20
2023-04-13T23:36:23.430Z,7.09
2023-04-13T23:37:23.345Z,7.08
2023-04-13T23:38:23.268Z,7.08
2023-04-13T23:39:23.385Z,7.12
2023-04-13T23:40:23.092Z,7.06
2023-04-13T23:41:22.979Z,7.21
2023-04-13T23:42:22.899Z,7.13
2023-04-13T23:43:22.819Z,7.16
2023-04-13T23:44:22.731Z,7.21
2023-04-13T23:45:22.644Z,7.27
2023-04-13T23:46:23.035Z,7.29
2023-04-13T23:47:22.533Z,7.26
2023-04-13T23:48:22.423Z,7.13
2023-04-13T23:49:22.307Z,7.26
2023-04-13T23:50:22.232Z,7.16
2023-04-13T23:51:22.146Z,7.13
2023-04-13T23:52:22.117Z,7.13
2023-04-13T23:53:21.977Z,7.11
2023-04-13T23:54:21.888Z,7.03
2023-04-13T23:55:21.808Z,7.06
2023-04-13T23:56:21.726Z,7.08
2023-04-13T23:57:21.643Z,7.06
2023-04-13T23:58:21.553Z,6.98
2023-04-13T23:59:21.475Z,6.96
